Time;durP1;ratioP1;P1;durP2;ratioP2;P2;SDS_P1;SDS_P2;PMS_P1;PMS_P2;Temp;Humidity;BMP_temperature;BMP_pressure;BME280_temperature;BME280_humidity;BME280_pressure;Samples;Min_cycle;Max_cycle;Signal;HPM_P1;HPM_P2
2023/05/11 00:00:44;;;;;;;1.17;0.73;;;;;;;12.05;100.00;97911.94;5093268;28;20200;-77
2023/05/11 00:03:11;;;;;;;0.87;0.70;;;;;;;12.00;100.00;97925.13;5093267;28;20648;-77
2023/05/11 00:05:37;;;;;;;1.37;0.60;;;;;;;11.99;100.00;97909.38;5093007;28;20227;-77
2023/05/11 00:08:03;;;;;;;1.43;0.90;;;;;;;12.06;100.00;97918.88;5093868;28;20205;-77
2023/05/11 00:10:30;;;;;;;1.27;0.80;;;;;;;12.07;100.00;97911.72;5094143;28;20563;-77
2023/05/11 00:12:57;;;;;;;0.50;0.50;;;;;;;12.08;100.00;97905.34;5095259;28;20211;-77
2023/05/11 00:15:23;;;;;;;1.90;0.60;;;;;;;12.02;100.00;97909.72;5095400;28;20230;-77
2023/05/11 00:17:50;;;;;;;0.60;0.50;;;;;;;12.12;100.00;97899.28;5095181;28;20206;-77
2023/05/11 00:20:16;;;;;;;1.13;0.67;;;;;;;12.09;100.00;97902.44;5094958;28;20297;-77
2023/05/11 00:22:42;;;;;;;0.80;0.60;;;;;;;12.18;100.00;97900.22;5093381;28;20213;-77
2023/05/11 00:25:09;;;;;;;1.43;0.60;;;;;;;12.07;100.00;97903.72;5093232;28;20739;-77
2023/05/11 00:27:35;;;;;;;0.83;0.60;;;;;;;12.03;100.00;97907.88;5093954;28;20231;-77
2023/05/11 00:30:02;;;;;;;2.80;0.70;;;;;;;11.99;100.00;97910.22;5093284;28;20214;-77
2023/05/11 00:32:28;;;;;;;1.10;0.70;;;;;;;12.02;100.00;97911.59;5092730;28;20210;-77
2023/05/11 00:34:54;;;;;;;0.60;0.60;;;;;;;12.09;100.00;97897.09;5093116;28;20211;-77
2023/05/11 00:37:21;;;;;;;1.03;0.60;;;;;;;12.11;100.00;97900.34;5093154;28;20209;-77
2023/05/11 00:39:47;;;;;;;0.60;0.60;;;;;;;12.10;100.00;97893.41;5093218;28;20207;-77
2023/05/11 00:42:13;;;;;;;1.70;0.60;;;;;;;12.16;100.00;97895.13;5093017;28;20214;-77
2023/05/11 00:44:40;;;;;;;2.83;0.80;;;;;;;12.14;100.00;97894.56;5093189;28;20207;-77
2023/05/11 00:47:07;;;;;;;4.90;0.80;;;;;;;12.17;100.00;97896.75;5092799;28;20226;-77
2023/05/11 00:49:33;;;;;;;2.10;0.60;;;;;;;12.18;100.00;97895.72;5093137;28;20208;-77
2023/05/11 00:52:01;;;;;;;0.60;0.60;;;;;;;12.22;100.00;97891.53;5093248;28;20207;-77
2023/05/11 00:54:28;;;;;;;0.57;0.50;;;;;;;12.13;100.00;97895.59;5093215;28;20207;-77
2023/05/11 00:56:54;;;;;;;0.50;0.50;;;;;;;12.15;100.00;97895.34;5093159;28;20314;-77
2023/05/11 00:59:21;;;;;;;2.30;0.70;;;;;;;12.08;100.00;97905.34;5093157;28;20206;-77
2023/05/11 01:01:47;;;;;;;0.60;0.60;;;;;;;12.15;100.00;97895.34;5093164;28;20214;-77
2023/05/11 01:04:13;;;;;;;1.47;0.73;;;;;;;12.10;100.00;97905.91;5093117;28;20200;-77
2023/05/11 01:06:56;;;;;;;0.87;0.50;;;;;;;12.11;100.00;97895.00;5092943;28;20254;-77
2023/05/11 01:09:41;;;;;;;1.00;0.60;;;;;;;12.14;100.00;97899.88;5093093;28;20199;-77
2023/05/11 01:12:19;;;;;;;1.07;0.70;;;;;;;12.15;100.00;97895.34;5098304;28;20194;-77
2023/05/11 01:14:57;;;;;;;2.67;0.60;;;;;;;12.15;100.00;97898.00;5098253;28;20649;-77
2023/05/11 01:17:55;;;;;;;1.33;0.70;;;;;;;12.14;100.00;97899.06;5081146;28;20195;-77
2023/05/11 01:20:26;;;;;;;2.03;0.70;;;;;;;12.06;100.00;97900.22;5080458;28;20218;-77
2023/05/11 01:23:01;;;;;;;0.53;0.53;;;;;;;12.09;100.00;97905.09;5096577;28;20275;-77
2023/05/11 01:25:47;;;;;;;1.03;0.60;;;;;;;12.12;100.00;97896.63;5096100;28;20706;-77
2023/05/11 01:28:51;;;;;;;0.63;0.60;;;;;;;12.13;100.00;97889.44;5096415;28;20222;-77
2023/05/11 01:31:19;;;;;;;0.83;0.67;;;;;;;12.16;100.00;97889.78;5096310;28;20207;-77
2023/05/11 01:33:57;;;;;;;0.50;0.50;;;;;;;12.16;100.00;97892.44;5096350;28;20211;-77
2023/05/11 01:36:30;;;;;;;1.80;0.50;;;;;;;12.14;100.00;97886.56;5095895;28;20222;-77
2023/05/11 01:39:01;;;;;;;3.40;0.70;;;;;;;12.09;100.00;97886.44;5095936;28;20720;-77
2023/05/11 01:41:29;;;;;;;0.60;0.50;;;;;;;12.12;100.00;97893.97;5096183;28;20196;-77
2023/05/11 01:43:58;;;;;;;0.70;0.70;;;;;;;12.12;100.00;97879.84;5096119;28;20212;-77
2023/05/11 01:46:26;;;;;;;0.43;0.43;;;;;;;12.14;100.00;97889.22;5095616;28;20231;-77
2023/05/11 01:48:58;;;;;;;1.07;0.53;;;;;;;12.10;100.00;97885.41;5095726;28;20666;-77
2023/05/11 01:51:27;;;;;;;3.17;0.70;;;;;;;12.13;100.00;97884.94;5095688;28;20202;-77
2023/05/11 01:53:55;;;;;;;1.57;0.60;;;;;;;12.12;100.00;97888.63;5095890;28;20203;-77
2023/05/11 01:56:22;;;;;;;0.57;0.53;;;;;;;12.10;100.00;97889.91;5095817;28;20224;-77
2023/05/11 01:58:51;;;;;;;0.50;0.50;;;;;;;12.05;100.00;97884.47;5095764;28;20526;-77
2023/05/11 02:01:18;;;;;;;0.60;0.60;;;;;;;12.03;100.00;97882.03;5095482;28;20689;-77
2023/05/11 02:03:48;;;;;;;1.80;0.60;;;;;;;12.03;100.00;97898.00;5095433;28;20689;-77
2023/05/11 02:06:16;;;;;;;2.03;0.67;;;;;;;12.01;100.00;97892.13;5095975;28;20259;-77
2023/05/11 02:08:45;;;;;;;0.63;0.60;;;;;;;11.99;100.00;97885.41;5095375;28;20246;-77
2023/05/11 02:11:14;;;;;;;1.70;0.50;;;;;;;11.99;100.00;97891.56;5097720;28;20215;-77
2023/05/11 02:13:43;;;;;;;0.70;0.67;;;;;;;12.01;100.00;97900.13;5097539;28;20263;-77
2023/05/11 02:16:10;;;;;;;0.50;0.50;;;;;;;12.03;100.00;97898.00;5097019;28;20592;-77
2023/05/11 02:18:40;;;;;;;2.07;0.80;;;;;;;11.99;100.00;97901.38;5096938;28;20669;-77
2023/05/11 02:21:09;;;;;;;1.40;0.60;;;;;;;12.01;100.00;97910.78;5096189;28;20218;-77
2023/05/11 02:23:37;;;;;;;2.00;0.60;;;;;;;12.03;100.00;97905.22;5094645;28;20206;-77
2023/05/11 02:26:06;;;;;;;1.90;0.57;;;;;;;12.07;100.00;97901.84;5095167;28;20227;-77
2023/05/11 02:28:32;;;;;;;0.50;0.50;;;;;;;12.08;100.00;97892.00;5095149;28;20224;-77
2023/05/11 02:31:04;;;;;;;0.70;0.60;;;;;;;12.05;100.00;97900.44;5094908;28;20674;-77
2023/05/11 02:33:35;;;;;;;1.37;0.57;;;;;;;12.02;100.00;97896.41;5094904;28;20646;-77
2023/05/11 02:36:02;;;;;;;0.60;0.60;;;;;;;12.07;100.00;97891.19;5095065;28;20274;-77
2023/05/11 02:38:35;;;;;;;0.67;0.60;;;;;;;12.07;100.00;97896.50;5095026;28;20200;-77
2023/05/11 02:41:11;;;;;;;0.60;0.60;;;;;;;12.03;100.00;97892.69;5094405;28;20662;-77
2023/05/11 02:43:44;;;;;;;1.50;0.70;;;;;;;12.02;100.00;97896.41;5094913;28;20197;-77
2023/05/11 02:46:15;;;;;;;3.07;0.60;;;;;;;11.95;100.00;97894.91;5094355;28;20234;-77
2023/05/11 02:48:46;;;;;;;0.60;0.60;;;;;;;11.98;100.00;97900.56;5094866;28;20203;-77
2023/05/11 02:51:16;;;;;;;2.03;0.67;;;;;;;11.98;100.00;97895.25;5094834;28;20187;-77
2023/05/11 02:53:45;;;;;;;1.60;0.63;;;;;;;12.00;100.00;97901.16;5094776;28;20206;-77
2023/05/11 02:56:13;;;;;;;2.00;0.60;;;;;;;12.05;100.00;97895.13;5094644;28;20227;-77
2023/05/11 02:58:39;;;;;;;0.63;0.50;;;;;;;12.02;100.00;97896.41;5094704;28;20564;-77
2023/05/11 03:01:07;;;;;;;0.57;0.57;;;;;;;11.99;100.00;97885.41;5094569;28;20202;-77
2023/05/11 03:03:33;;;;;;;0.50;0.50;;;;;;;12.00;100.00;97890.50;5094072;28;20689;-77
2023/05/11 03:05:59;;;;;;;2.50;0.77;;;;;;;12.01;100.00;97892.13;5094395;28;20220;-77
2023/05/11 03:08:26;;;;;;;1.43;0.73;;;;;;;12.06;100.00;97883.41;5094333;28;20232;-77
2023/05/11 03:10:53;;;;;;;0.60;0.60;;;;;;;12.05;100.00;97885.28;5095618;28;20253;-77
2023/05/11 03:13:22;;;;;;;0.87;0.70;;;;;;;12.01;100.00;97881.47;5096028;28;20576;-77
2023/05/11 03:15:49;;;;;;;2.70;0.93;;;;;;;12.02;100.00;97885.75;5095895;28;20230;-77
2023/05/11 03:18:16;;;;;;;1.20;0.70;;;;;;;12.05;100.00;97882.63;5096006;28;20199;-77
2023/05/11 03:20:44;;;;;;;0.97;0.70;;;;;;;12.02;100.00;97891.06;5095561;28;20291;-77
2023/05/11 03:23:12;;;;;;;2.00;0.70;;;;;;;12.01;100.00;97881.47;5093983;28;20216;-77
2023/05/11 03:25:41;;;;;;;0.80;0.77;;;;;;;12.01;100.00;97881.47;5094014;28;20238;-77
2023/05/11 03:28:09;;;;;;;0.60;0.60;;;;;;;11.98;100.00;97884.59;5093809;28;20693;-77
2023/05/11 03:30:37;;;;;;;1.10;0.60;;;;;;;12.00;100.00;97879.84;5076247;28;20206;-77
2023/05/11 03:33:04;;;;;;;0.80;0.80;;;;;;;11.96;100.00;97873.34;5093983;28;20200;-77
2023/05/11 03:35:34;;;;;;;0.70;0.70;;;;;;;12.00;100.00;97873.69;5093485;28;20221;-77
2023/05/11 03:38:01;;;;;;;1.03;0.70;;;;;;;11.95;100.00;97879.72;5093405;28;20580;-77
2023/05/11 03:40:30;;;;;;;0.67;0.67;;;;;;;12.00;100.00;97877.19;5093475;28;20206;-77
2023/05/11 03:42:59;;;;;;;1.53;1.20;;;;;;;11.98;100.00;97876.59;5093485;28;20279;-77
2023/05/11 03:45:28;;;;;;;0.90;0.90;;;;;;;11.92;100.00;97876.69;5093516;28;20229;-77
2023/05/11 03:47:57;;;;;;;0.50;0.50;;;;;;;12.00;100.00;97869.19;5093603;28;20206;-77
2023/05/11 03:50:23;;;;;;;1.30;0.57;;;;;;;11.99;100.00;97875.56;5093720;28;20210;-77
2023/05/11 03:52:50;;;;;;;1.07;0.73;;;;;;;11.99;100.00;97870.25;5093460;28;20692;-77
2023/05/11 03:55:17;;;;;;;1.67;0.80;;;;;;;12.00;100.00;97877.19;5093367;28;20227;-77
2023/05/11 03:57:43;;;;;;;1.37;0.80;;;;;;;11.95;100.00;97868.25;5093406;28;20202;-77
2023/05/11 04:00:11;;;;;;;1.70;0.80;;;;;;;11.87;100.00;97872.09;5093690;28;20211;-77
2023/05/11 04:02:37;;;;;;;0.70;0.70;;;;;;;11.89;100.00;97869.19;5093455;28;20211;-77
2023/05/11 04:05:07;;;;;;;1.00;0.80;;;;;;;11.90;100.00;97860.16;5093477;28;20208;-77
2023/05/11 04:07:35;;;;;;;2.47;0.80;;;;;;;11.96;100.00;97873.34;5093171;28;20696;-77
2023/05/11 04:10:02;;;;;;;0.90;0.80;;;;;;;12.00;100.00;97868.38;5094228;28;20210;-77
2023/05/11 04:12:29;;;;;;;0.80;0.70;;;;;;;12.02;100.00;97864.44;5095265;28;20207;-77
2023/05/11 04:14:55;;;;;;;2.03;0.90;;;;;;;12.09;100.00;97854.47;5095099;28;20212;-77
2023/05/11 04:17:21;;;;;;;1.67;0.80;;;;;;;12.09;100.00;97864.31;5095371;28;20214;-77
2023/05/11 04:19:48;;;;;;;1.00;0.90;;;;;;;12.06;100.00;97865.59;5095393;28;20203;-76
2023/05/11 04:22:14;;;;;;;2.53;0.80;;;;;;;12.02;100.00;97869.75;5092788;28;20693;-77
2023/05/11 04:24:41;;;;;;;1.10;1.00;;;;;;;11.98;100.00;97867.81;5093970;28;20599;-77
2023/05/11 04:27:07;;;;;;;3.23;1.00;;;;;;;11.99;100.00;97864.91;5093085;28;20629;-77
2023/05/11 04:29:33;;;;;;;2.37;0.90;;;;;;;12.02;100.00;97869.75;5093131;28;20248;-77
2023/05/11 04:32:00;;;;;;;1.13;1.03;;;;;;;12.04;100.00;97866.88;5092892;28;20215;-77
2023/05/11 04:34:26;;;;;;;1.30;1.00;;;;;;;12.06;100.00;97864.75;5093139;28;20201;-77
2023/05/11 04:36:52;;;;;;;3.17;1.27;;;;;;;12.11;100.00;97860.38;5092886;28;20224;-77
2023/05/11 04:39:19;;;;;;;4.20;1.30;;;;;;;12.05;100.00;97863.97;5093314;28;20203;-77
2023/05/11 04:41:46;;;;;;;2.60;0.97;;;;;;;12.00;100.00;97869.19;5092568;28;20209;-77
2023/05/11 04:44:12;;;;;;;2.17;1.10;;;;;;;11.91;100.00;97875.91;5092439;28;20668;-77
2023/05/11 04:46:38;;;;;;;1.53;1.00;;;;;;;12.02;100.00;97869.75;5095778;28;20242;-77
2023/05/11 04:49:05;;;;;;;1.10;1.00;;;;;;;12.05;100.00;97877.28;5096255;28;20228;-77
2023/05/11 04:51:32;;;;;;;2.30;1.93;;;;;;;12.11;100.00;97867.56;5096933;28;20627;-77
2023/05/11 04:53:58;;;;;;;2.40;1.07;;;;;;;12.09;100.00;97867.78;5096837;28;20214;-77
2023/05/11 04:56:25;;;;;;;2.47;1.07;;;;;;;11.97;100.00;97866.16;5096692;28;20230;-77
2023/05/11 04:58:51;;;;;;;1.93;1.33;;;;;;;11.98;100.00;97865.13;5097580;28;20206;-77
2023/05/11 05:01:17;;;;;;;1.63;1.27;;;;;;;11.99;100.00;97864.91;5096342;28;20208;-77
2023/05/11 05:03:44;;;;;;;3.53;1.17;;;;;;;11.90;100.00;97873.47;5096538;28;20237;-77
2023/05/11 05:06:10;;;;;;;1.30;1.20;;;;;;;11.95;100.00;97871.75;5096474;28;20221;-77
2023/05/11 05:08:37;;;;;;;1.03;1.00;;;;;;;11.98;100.00;97873.91;5096283;28;20233;-77
2023/05/11 05:11:03;;;;;;;2.40;1.10;;;;;;;12.00;100.00;97879.84;5098001;28;20206;-77
2023/05/11 05:13:29;;;;;;;1.43;1.20;;;;;;;12.06;100.00;97886.09;5097923;28;20215;-77
2023/05/11 05:15:56;;;;;;;2.00;1.30;;;;;;;12.05;100.00;97873.81;5097729;28;20226;-77
2023/05/11 05:18:22;;;;;;;1.33;1.20;;;;;;;12.04;100.00;97875.69;5098322;28;20200;-77
2023/05/11 05:20:48;;;;;;;2.20;1.10;;;;;;;12.03;100.00;97876.69;5097293;28;20240;-77
2023/05/11 05:23:15;;;;;;;1.37;1.10;;;;;;;12.00;100.00;97877.19;5095865;28;20302;-77
2023/05/11 05:25:41;;;;;;;1.80;1.10;;;;;;;12.04;100.00;97881.00;5095881;28;20235;-77
2023/05/11 05:28:07;;;;;;;1.43;1.10;;;;;;;12.08;100.00;97887.47;5095508;28;20223;-77
2023/05/11 05:30:35;;;;;;;1.27;1.00;;;;;;;12.07;100.00;97885.84;5096268;28;20571;-77
2023/05/11 05:33:02;;;;;;;1.80;1.00;;;;;;;12.11;100.00;97879.03;5096036;28;20213;-77
2023/05/11 05:35:28;;;;;;;4.03;1.10;;;;;;;12.11;100.00;97879.03;5096189;28;20222;-77
2023/05/11 05:37:55;;;;;;;1.20;1.10;;;;;;;12.15;100.00;97882.03;5095707;28;20199;-77
2023/05/11 05:40:21;;;;;;;0.80;0.80;;;;;;;12.22;100.00;97877.41;5095791;28;20604;-77
2023/05/11 05:42:47;;;;;;;2.50;1.00;;;;;;;12.18;100.00;97893.06;5096009;28;20574;-78
2023/05/11 05:45:14;;;;;;;0.80;0.80;;;;;;;12.23;100.00;97892.34;5095324;28;20223;-77
2023/05/11 05:47:40;;;;;;;1.23;1.13;;;;;;;12.21;100.00;97889.91;5095505;28;20219;-77
2023/05/11 05:50:07;;;;;;;1.50;1.00;;;;;;;12.29;100.00;97886.88;5095570;28;20205;-77
2023/05/11 05:52:34;;;;;;;2.43;0.90;;;;;;;12.26;100.00;97894.53;5095680;28;20207;-77
2023/05/11 05:55:00;;;;;;;2.20;1.03;;;;;;;12.18;100.00;97893.06;5095628;28;20238;-77
2023/05/11 05:57:29;;;;;;;2.00;1.00;;;;;;;12.24;100.00;97892.09;5094180;28;20207;-77
2023/05/11 05:59:55;;;;;;;2.03;1.10;;;;;;;12.31;100.00;97899.97;5095676;28;20214;-77
2023/05/11 06:02:22;;;;;;;2.77;1.20;;;;;;;12.35;100.00;97891.28;5095318;28;20309;-77
2023/05/11 06:04:48;;;;;;;2.60;1.13;;;;;;;12.33;100.00;97896.03;5095507;28;20211;-77
2023/05/11 06:07:15;;;;;;;1.40;1.27;;;;;;;12.36;100.00;97894.75;5095267;28;20233;-77
2023/05/11 06:09:41;;;;;;;1.73;1.30;;;;;;;12.35;100.00;97898.47;5095738;28;20214;-77
2023/05/11 06:12:08;;;;;;;3.00;1.00;;;;;;;12.40;100.00;97896.75;5096819;28;20212;-77
2023/05/11 06:14:35;;;;;;;2.80;1.20;;;;;;;12.37;100.00;97893.72;5097107;28;20211;-77
2023/05/11 06:17:01;;;;;;;1.87;1.23;;;;;;;12.42;100.00;97897.31;5097162;28;20270;-77
2023/05/11 06:19:27;;;;;;;3.90;1.37;;;;;;;12.42;100.00;97905.31;5096520;28;20685;-77
2023/05/11 06:21:54;;;;;;;1.20;1.10;;;;;;;12.51;100.00;97903.91;5095228;28;20211;-76
2023/05/11 06:24:21;;;;;;;2.10;1.03;;;;;;;12.50;100.00;97898.78;5095620;28;20208;-75
2023/05/11 06:26:47;;;;;;;2.27;1.17;;;;;;;12.38;100.00;97906.81;5095437;28;20273;-75
2023/05/11 06:29:13;;;;;;;2.53;1.20;;;;;;;12.42;100.00;97899.16;5094682;28;20224;-76
2023/05/11 06:31:40;;;;;;;1.50;1.40;;;;;;;12.44;100.00;97902.41;5094429;28;20616;-76
2023/05/11 06:34:07;;;;;;;2.33;1.23;;;;;;;12.41;100.00;97893.03;5094816;28;20208;-76
2023/05/11 06:36:34;;;;;;;2.17;1.40;;;;;;;12.37;100.00;97901.72;5095039;28;20657;-75
2023/05/11 06:39:00;;;;;;;1.63;1.37;;;;;;;12.37;100.00;97891.88;5094900;28;20203;-75
2023/05/11 06:41:26;;;;;;;1.30;1.13;;;;;;;12.41;100.00;97905.53;5096037;28;20204;-75
2023/05/11 06:43:53;;;;;;;1.30;1.20;;;;;;;12.41;100.00;97895.69;5115372;28;20203;-76
2023/05/11 06:46:20;;;;;;;1.70;1.33;;;;;;;12.47;100.00;97905.41;5114674;28;20238;-76
2023/05/11 06:48:47;;;;;;;1.23;0.90;;;;;;;12.43;100.00;97892.78;5115039;28;20578;-76
2023/05/11 06:51:13;;;;;;;1.53;1.20;;;;;;;12.38;100.00;97900.69;5115138;28;20228;-76
2023/05/11 06:53:40;;;;;;;1.20;1.10;;;;;;;12.33;100.00;97905.88;5115447;28;20200;-76
2023/05/11 06:56:07;;;;;;;2.60;1.20;;;;;;;12.40;100.00;97899.41;5115101;28;20223;-76
2023/05/11 06:58:33;;;;;;;2.07;1.30;;;;;;;12.43;100.00;97903.47;5114361;28;20228;-75
2023/05/11 07:01:01;;;;;;;1.30;1.20;;;;;;;12.38;100.00;97900.69;5114701;28;20666;-76
2023/05/11 07:03:27;;;;;;;1.63;1.33;;;;;;;12.48;100.00;97896.34;5114627;28;20256;-75
2023/05/11 07:05:53;;;;;;;1.97;1.73;;;;;;;12.50;100.00;97904.94;5115005;28;20262;-75
2023/05/11 07:08:20;;;;;;;1.50;1.40;;;;;;;12.36;100.00;97905.44;5114158;28;20225;-75
2023/05/11 07:10:46;;;;;;;1.80;1.50;;;;;;;12.42;100.00;97907.97;5114850;28;20218;-76
2023/05/11 07:13:13;;;;;;;1.90;1.43;;;;;;;12.45;100.00;97912.84;5114812;28;20203;-75
2023/05/11 07:15:39;;;;;;;1.60;1.50;;;;;;;12.44;100.00;97905.88;5114843;28;20223;-75
2023/05/11 07:18:06;;;;;;;1.50;1.40;;;;;;;12.38;100.00;97916.69;5114640;28;20294;-75
2023/05/11 07:20:35;;;;;;;2.30;1.37;;;;;;;12.21;100.00;97911.22;5114751;28;20211;-75
2023/05/11 07:23:02;;;;;;;2.40;1.50;;;;;;;12.34;100.00;97916.31;5114911;28;20199;-75
2023/05/11 07:25:28;;;;;;;1.47;1.37;;;;;;;12.40;100.00;97914.59;5114848;28;20219;-75
2023/05/11 07:27:55;;;;;;;2.40;1.40;;;;;;;12.37;100.00;97910.53;5114496;28;20218;-75
2023/05/11 07:30:22;;;;;;;2.07;1.17;;;;;;;12.37;100.00;97921.19;5114259;28;20210;-75
2023/05/11 07:32:49;;;;;;;2.23;1.60;;;;;;;12.35;100.00;97917.94;5114752;28;20250;-75
2023/05/11 07:35:15;;;;;;;1.47;1.33;;;;;;;12.41;100.00;97921.53;5114433;28;20223;-75
2023/05/11 07:37:42;;;;;;;1.57;1.43;;;;;;;12.37;100.00;97913.19;5114018;28;20575;-74
2023/05/11 07:40:09;;;;;;;1.70;1.60;;;;;;;12.26;100.00;97922.00;5114225;28;20670;-74
2023/05/11 07:42:35;;;;;;;1.57;1.33;;;;;;;12.27;100.00;97922.81;5114120;28;20214;-74
2023/05/11 07:45:01;;;;;;;2.60;1.80;;;;;;;12.36;100.00;97924.91;5114327;28;20212;-75
2023/05/11 07:47:28;;;;;;;2.33;1.77;;;;;;;12.40;100.00;97919.91;5095587;28;20263;-76
2023/05/11 07:49:54;;;;;;;2.10;1.43;;;;;;;12.35;100.00;97923.25;5113873;28;20701;-76
2023/05/11 07:52:20;;;;;;;2.40;1.53;;;;;;;12.24;100.00;97923.28;5095535;28;20606;-75
2023/05/11 07:54:47;;;;;;;2.33;1.73;;;;;;;12.36;100.00;97924.09;5093774;28;20685;-75
2023/05/11 07:57:13;;;;;;;3.23;1.63;;;;;;;12.28;100.00;97919.94;5093810;28;20230;-76
2023/05/11 07:59:40;;;;;;;3.43;1.63;;;;;;;12.30;100.00;97922.34;5093899;28;20203;-76
2023/05/11 08:02:08;;;;;;;4.00;1.90;;;;;;;12.37;100.00;97921.19;5094341;28;20237;-76
2023/05/11 08:04:35;;;;;;;5.27;1.70;;;;;;;12.32;100.00;97918.41;5094101;28;20208;-76
2023/05/11 08:07:01;;;;;;;1.60;1.50;;;;;;;12.42;100.00;97909.81;5093582;28;20322;-76
2023/05/11 08:09:28;;;;;;;1.63;1.53;;;;;;;12.31;100.00;97916.81;5093885;28;20223;-76
2023/05/11 08:11:55;;;;;;;2.57;1.70;;;;;;;12.37;100.00;97915.88;5093539;28;20515;-76
2023/05/11 08:14:22;;;;;;;2.07;1.87;;;;;;;12.44;100.00;97921.88;5093721;28;20207;-76
2023/05/11 08:16:49;;;;;;;2.77;1.90;;;;;;;12.45;100.00;97912.84;5093323;28;20620;-77
2023/05/11 08:19:15;;;;;;;1.80;1.70;;;;;;;12.58;100.00;97914.44;5093490;28;20235;-76
2023/05/11 08:21:42;;;;;;;3.17;1.90;;;;;;;12.53;100.00;97909.78;5097181;28;20218;-76
2023/05/11 08:24:09;;;;;;;2.40;1.87;;;;;;;12.68;100.00;97910.13;5097702;28;20287;-77
2023/05/11 08:26:36;;;;;;;2.47;1.83;;;;;;;12.60;100.00;97910.50;5097180;28;20777;-77
2023/05/11 08:29:03;;;;;;;3.10;2.20;;;;;;;12.49;100.00;97910.50;5097487;28;20306;-77
2023/05/11 08:31:29;;;;;;;3.30;2.07;;;;;;;12.74;100.00;97922.53;5097551;28;20208;-76
2023/05/11 08:33:56;;;;;;;2.53;2.10;;;;;;;12.84;100.00;97917.38;5097436;28;20211;-77
2023/05/11 08:36:22;;;;;;;2.97;2.17;;;;;;;12.44;100.00;97921.06;5097508;28;20234;-77
2023/05/11 08:38:49;;;;;;;3.17;2.23;;;;;;;12.48;100.00;97925.69;5097561;28;20214;-76
2023/05/11 08:41:15;;;;;;;4.87;2.33;;;;;;;12.59;100.00;97914.22;5097389;28;20736;-76
2023/05/11 08:43:43;;;;;;;2.80;2.10;;;;;;;12.60;100.00;97915.81;5098250;28;20204;-77
2023/05/11 08:46:14;;;;;;;2.90;2.20;;;;;;;12.65;100.00;97913.25;5096921;28;20260;-76
2023/05/11 08:48:41;;;;;;;2.77;2.17;;;;;;;12.59;100.00;97908.88;5096140;28;20570;-76
2023/05/11 08:51:09;;;;;;;5.90;2.60;;;;;;;12.71;100.00;97916.84;5096545;28;20667;-77
2023/05/11 08:53:35;;;;;;;3.70;2.57;;;;;;;12.82;100.00;97919.50;5097582;28;20203;-77
2023/05/11 08:56:05;;;;;;;3.13;2.10;;;;;;;13.02;100.00;97913.78;5097217;28;20235;-77
2023/05/11 08:58:35;;;;;;;2.60;2.20;;;;;;;12.99;100.00;97916.91;5079750;28;20224;-77
2023/05/11 09:01:02;;;;;;;2.40;2.20;;;;;;;13.01;100.00;97918.31;5096911;28;20211;-76
2023/05/11 09:03:30;;;;;;;3.03;2.00;;;;;;;12.87;100.00;97911.59;5097033;28;20207;-75
2023/05/11 09:05:57;;;;;;;3.20;1.80;;;;;;;12.80;100.00;97926.09;5096727;28;20231;-76
2023/05/11 09:08:25;;;;;;;2.63;2.10;;;;;;;12.69;100.00;97921.59;5096502;28;20220;-76
2023/05/11 09:10:52;;;;;;;2.63;1.83;;;;;;;12.72;100.00;97921.97;5096993;28;20240;-77
2023/05/11 09:13:18;;;;;;;2.37;2.00;;;;;;;12.66;100.00;97919.41;5096740;28;20206;-76
2023/05/11 09:15:45;;;;;;;1.77;1.67;;;;;;;12.75;100.00;97920.69;5096848;28;20220;-76
2023/05/11 09:18:12;;;;;;;2.93;1.90;;;;;;;12.89;100.00;97912.16;5096890;28;20235;-76
2023/05/11 09:20:43;;;;;;;3.30;2.07;;;;;;;12.98;100.00;97913.44;5096562;28;20599;-77
2023/05/11 09:23:17;;;;;;;2.30;2.00;;;;;;;12.85;100.00;97918.22;5096586;28;20223;-76
2023/05/11 09:25:43;;;;;;;3.70;2.00;;;;;;;13.13;100.00;97913.75;5096646;28;20228;-77
2023/05/11 09:28:15;;;;;;;4.33;2.80;;;;;;;13.06;100.00;97907.72;5096540;28;20207;-76
2023/05/11 09:30:42;;;;;;;2.90;2.10;;;;;;;12.87;100.00;97910.75;5105651;28;20643;-76
2023/05/11 09:33:09;;;;;;;3.47;1.87;;;;;;;12.90;100.00;97911.13;5105430;28;20210;-76
2023/05/11 09:35:35;;;;;;;2.07;1.87;;;;;;;12.93;100.00;97909.84;5107069;28;20219;-76
2023/05/11 09:38:04;;;;;;;2.37;2.00;;;;;;;13.00;100.00;97911.34;5107358;28;20202;-76
2023/05/11 09:40:38;;;;;;;1.77;1.67;;;;;;;13.09;100.00;97912.59;5104958;28;20196;-76
2023/05/11 09:43:26;;;;;;;2.53;1.97;;;;;;;12.94;100.00;97917.56;5104403;28;20194;-76
2023/05/11 09:45:54;;;;;;;6.93;2.67;;;;;;;12.95;100.00;97908.56;5107233;28;20220;-77
2023/05/11 09:48:21;;;;;;;2.43;1.50;;;;;;;12.82;100.00;97914.16;5106418;28;20565;-76
2023/05/11 09:50:48;;;;;;;2.17;1.97;;;;;;;12.86;100.00;97909.16;5106636;28;20199;-76
2023/05/11 09:53:15;;;;;;;4.27;2.10;;;;;;;13.06;100.00;97915.72;5104481;28;20199;-74
2023/05/11 09:55:53;;;;;;;2.00;1.50;;;;;;;12.96;100.00;97912.84;5113518;28;20287;-81
2023/05/11 09:58:19;;;;;;;4.70;1.80;;;;;;;13.07;100.00;97917.34;5111837;28;20198;-81
2023/05/11 10:00:53;;;;;;;2.33;2.07;;;;;;;13.04;100.00;97914.34;5113851;28;20573;-81
2023/05/11 10:03:20;;;;;;;2.73;2.20;;;;;;;12.98;100.00;97916.09;5113161;28;20191;-81
2023/05/11 10:05:58;;;;;;;2.40;1.90;;;;;;;13.06;100.00;97910.38;5109585;28;20223;-81
2023/05/11 10:08:33;;;;;;;2.20;1.60;;;;;;;12.92;100.00;97916.19;5104431;28;20204;-81
2023/05/11 10:11:02;;;;;;;2.33;2.13;;;;;;;13.03;100.00;97915.41;5107891;28;20203;-81
2023/05/11 10:13:32;;;;;;;2.50;2.17;;;;;;;13.07;100.00;97913.88;5115751;28;20196;-81
2023/05/11 10:16:06;;;;;;;2.20;2.00;;;;;;;12.96;100.00;97917.34;5111983;28;20285;-81
2023/05/11 10:18:33;;;;;;;2.10;1.73;;;;;;;12.97;100.00;97913.69;5113427;28;20616;-79
2023/05/11 10:21:00;;;;;;;2.17;2.00;;;;;;;13.14;100.00;97911.88;5114853;28;20203;-80
2023/05/11 10:23:27;;;;;;;3.00;2.10;;;;;;;13.16;100.00;97915.13;5109137;28;20692;-81
2023/05/11 10:25:54;;;;;;;2.27;2.07;;;;;;;13.22;100.00;97914.97;5112226;28;20287;-80
2023/05/11 10:28:22;;;;;;;3.30;1.87;;;;;;;12.85;100.00;97923.53;5114707;28;20214;-78
2023/05/11 10:30:48;;;;;;;2.33;1.97;;;;;;;12.74;100.00;97919.84;5104270;28;20205;-77
2023/05/11 10:33:16;;;;;;;2.10;2.00;;;;;;;12.86;100.00;97912.63;5104725;28;20565;-77
2023/05/11 10:35:45;;;;;;;4.60;2.07;;;;;;;12.95;100.00;97903.22;5106508;28;20219;-77
2023/05/11 10:38:12;;;;;;;2.37;1.70;;;;;;;13.07;100.00;97906.66;5104666;28;20651;-77
2023/05/11 10:40:42;;;;;;;2.97;2.10;;;;;;;13.06;100.00;97905.06;5104441;28;20197;-77
2023/05/11 10:43:43;;;;;;;3.57;1.90;;;;;;;12.98;100.00;97907.31;5103806;28;20662;-77
2023/05/11 10:46:39;;;;;;;4.93;2.60;;;;;;;13.21;100.00;97912.53;5103759;28;20271;-77
2023/05/11 10:49:32;;;;;;;2.53;2.33;;;;;;;12.96;100.00;97899.50;5105791;28;20711;-77
2023/05/11 10:52:16;;;;;;;2.40;2.30;;;;;;;13.10;100.00;97889.38;5105873;28;20369;-76
2023/05/11 10:55:24;;;;;;;2.53;2.30;;;;;;;13.25;100.00;97900.34;5083775;28;20756;-77
2023/05/11 10:58:08;;;;;;;2.37;2.27;;;;;;;13.37;100.00;97907.25;5094728;28;20686;-77
2023/05/11 11:00:53;;;;;;;2.27;2.00;;;;;;;13.06;100.00;97898.91;5077506;28;20275;-77
2023/05/11 11:03:19;;;;;;;2.80;2.50;;;;;;;13.23;100.00;97899.75;5095157;28;20196;-77
2023/05/11 11:05:46;;;;;;;3.53;2.67;;;;;;;13.41;100.00;97887.03;5095066;28;20227;-77
2023/05/11 11:08:13;;;;;;;3.37;2.40;;;;;;;13.51;100.00;97887.19;5094821;28;20675;-76
2023/05/11 11:10:44;;;;;;;4.23;2.13;;;;;;;13.06;100.00;97898.91;5094877;28;20257;-76
2023/05/11 11:13:13;;;;;;;3.77;2.57;;;;;;;13.36;100.00;97894.13;5094537;28;20207;-76
2023/05/11 11:15:55;;;;;;;2.83;2.63;;;;;;;13.40;100.00;97897.94;5094167;28;20593;-72
2023/05/11 11:18:24;;;;;;;1.60;1.50;;;;;;;13.54;100.00;97891.25;5094449;28;20207;-72
2023/05/11 11:20:58;;;;;;;2.97;2.27;;;;;;;13.09;100.00;97888.56;5105254;28;20196;-72
2023/05/11 11:23:40;;;;;;;2.53;2.30;;;;;;;12.90;100.00;97888.97;5105455;28;20195;-72
2023/05/11 11:26:07;;;;;;;2.87;2.50;;;;;;;12.90;100.00;97897.78;5104500;28;20250;-72
2023/05/11 11:28:56;;;;;;;2.17;1.97;;;;;;;12.76;100.00;97887.63;5105288;28;20584;-72
2023/05/11 11:31:29;;;;;;;4.43;2.07;;;;;;;12.81;100.00;97891.19;5107400;28;20213;-72